sensor_id;sensor_type;location;lat;lon;timestamp;temperature;humidity
22430;DHT22;11382;48.086;11.632;2023-03-14T00:00:24;10.80;99.90
22430;DHT22;11382;48.086;11.632;2023-03-14T00:02:52;10.80;99.90
22430;DHT22;11382;48.086;11.632;2023-03-14T00:05:21;10.80;99.90
22430;DHT22;11382;48.086;11.632;2023-03-14T00:07:49;10.70;99.90
22430;DHT22;11382;48.086;11.632;2023-03-14T00:10:17;10.70;99.90
22430;DHT22;11382;48.086;11.632;2023-03-14T00:12:45;10.70;99.90
22430;DHT22;11382;48.086;11.632;2023-03-14T00:15:14;10.80;99.90
22430;DHT22;11382;48.086;11.632;2023-03-14T00:17:44;10.70;99.90
22430;DHT22;11382;48.086;11.632;2023-03-14T00:20:12;10.60;99.90
22430;DHT22;11382;48.086;11.632;2023-03-14T00:22:41;10.50;99.90
22430;DHT22;11382;48.086;11.632;2023-03-14T00:25:10;10.50;99.90
22430;DHT22;11382;48.086;11.632;2023-03-14T00:27:39;10.60;99.90
22430;DHT22;11382;48.086;11.632;2023-03-14T00:30:08;10.70;99.90
22430;DHT22;11382;48.086;11.632;2023-03-14T00:32:37;10.70;99.90
22430;DHT22;11382;48.086;11.632;2023-03-14T00:35:08;10.70;99.90
22430;DHT22;11382;48.086;11.632;2023-03-14T00:37:36;10.60;99.90
22430;DHT22;11382;48.086;11.632;2023-03-14T00:40:06;10.60;99.90
22430;DHT22;11382;48.086;11.632;2023-03-14T00:42:34;10.50;99.90
22430;DHT22;11382;48.086;11.632;2023-03-14T00:45:03;10.60;99.90
22430;DHT22;11382;48.086;11.632;2023-03-14T00:47:33;10.60;99.90
22430;DHT22;11382;48.086;11.632;2023-03-14T00:50:03;10.60;99.90
22430;DHT22;11382;48.086;11.632;2023-03-14T00:52:31;10.60;99.90
22430;DHT22;11382;48.086;11.632;2023-03-14T00:54:58;10.60;99.90
22430;DHT22;11382;48.086;11.632;2023-03-14T00:57:27;10.70;99.90
22430;DHT22;11382;48.086;11.632;2023-03-14T00:59:55;10.70;99.90
22430;DHT22;11382;48.086;11.632;2023-03-14T01:02:23;10.60;99.90
22430;DHT22;11382;48.086;11.632;2023-03-14T01:04:51;10.60;99.90
22430;DHT22;11382;48.086;11.632;2023-03-14T01:07:22;10.60;99.90
22430;DHT22;11382;48.086;11.632;2023-03-14T01:09:51;10.50;99.90
22430;DHT22;11382;48.086;11.632;2023-03-14T01:12:19;10.60;99.90
22430;DHT22;11382;48.086;11.632;2023-03-14T01:14:47;10.60;99.90
22430;DHT22;11382;48.086;11.632;2023-03-14T01:17:15;10.50;99.90
22430;DHT22;11382;48.086;11.632;2023-03-14T01:19:43;10.50;99.90
22430;DHT22;11382;48.086;11.632;2023-03-14T01:22:11;10.50;99.90
22430;DHT22;11382;48.086;11.632;2023-03-14T01:24:40;10.30;99.90
22430;DHT22;11382;48.086;11.632;2023-03-14T01:27:08;10.30;99.90
22430;DHT22;11382;48.086;11.632;2023-03-14T01:29:36;10.30;99.90
22430;DHT22;11382;48.086;11.632;2023-03-14T01:32:05;10.20;99.90
22430;DHT22;11382;48.086;11.632;2023-03-14T01:34:33;10.20;99.90
22430;DHT22;11382;48.086;11.632;2023-03-14T01:37:01;10.20;99.90
22430;DHT22;11382;48.086;11.632;2023-03-14T01:39:30;10.20;99.90
22430;DHT22;11382;48.086;11.632;2023-03-14T01:42:00;10.10;99.90
22430;DHT22;11382;48.086;11.632;2023-03-14T01:44:28;10.10;99.90
22430;DHT22;11382;48.086;11.632;2023-03-14T01:46:56;10.10;99.90
22430;DHT22;11382;48.086;11.632;2023-03-14T01:49:26;10.20;99.90
22430;DHT22;11382;48.086;11.632;2023-03-14T01:52:04;10.20;99.90
22430;DHT22;11382;48.086;11.632;2023-03-14T01:54:36;10.10;99.90
22430;DHT22;11382;48.086;11.632;2023-03-14T01:57:09;10.10;99.90
22430;DHT22;11382;48.086;11.632;2023-03-14T01:59:38;9.90;99.90
22430;DHT22;11382;48.086;11.632;2023-03-14T02:02:09;10.00;99.90
22430;DHT22;11382;48.086;11.632;2023-03-14T02:04:39;9.90;99.90
22430;DHT22;11382;48.086;11.632;2023-03-14T02:07:11;9.80;99.90
22430;DHT22;11382;48.086;11.632;2023-03-14T02:09:46;9.80;99.90
22430;DHT22;11382;48.086;11.632;2023-03-14T02:12:23;9.70;99.90
22430;DHT22;11382;48.086;11.632;2023-03-14T02:15:08;9.60;99.90
22430;DHT22;11382;48.086;11.632;2023-03-14T02:17:51;9.50;99.90
22430;DHT22;11382;48.086;11.632;2023-03-14T02:20:50;9.40;99.90
22430;DHT22;11382;48.086;11.632;2023-03-14T02:23:30;9.40;99.90
22430;DHT22;11382;48.086;11.632;2023-03-14T02:26:03;9.30;99.90
22430;DHT22;11382;48.086;11.632;2023-03-14T02:28:34;9.30;99.90
22430;DHT22;11382;48.086;11.632;2023-03-14T02:31:03;9.20;99.90
22430;DHT22;11382;48.086;11.632;2023-03-14T02:33:35;9.10;99.90
22430;DHT22;11382;48.086;11.632;2023-03-14T02:36:08;9.10;99.90
22430;DHT22;11382;48.086;11.632;2023-03-14T02:38:41;9.10;99.90
22430;DHT22;11382;48.086;11.632;2023-03-14T02:41:13;9.10;99.90
22430;DHT22;11382;48.086;11.632;2023-03-14T02:43:49;9.00;99.90
22430;DHT22;11382;48.086;11.632;2023-03-14T02:46:18;9.00;99.90
22430;DHT22;11382;48.086;11.632;2023-03-14T02:48:50;9.00;99.90
22430;DHT22;11382;48.086;11.632;2023-03-14T02:51:19;9.00;99.90
22430;DHT22;11382;48.086;11.632;2023-03-14T02:53:47;9.00;99.90
22430;DHT22;11382;48.086;11.632;2023-03-14T02:56:17;9.00;99.90
22430;DHT22;11382;48.086;11.632;2023-03-14T02:58:45;9.00;99.90
22430;DHT22;11382;48.086;11.632;2023-03-14T03:01:29;8.90;99.90
22430;DHT22;11382;48.086;11.632;2023-03-14T03:03:58;8.90;99.90
22430;DHT22;11382;48.086;11.632;2023-03-14T03:06:26;8.90;99.90
22430;DHT22;11382;48.086;11.632;2023-03-14T03:08:54;8.90;99.90
22430;DHT22;11382;48.086;11.632;2023-03-14T03:11:22;8.80;99.90
22430;DHT22;11382;48.086;11.632;2023-03-14T03:13:49;8.80;99.90
22430;DHT22;11382;48.086;11.632;2023-03-14T03:16:17;8.80;99.90
22430;DHT22;11382;48.086;11.632;2023-03-14T03:18:47;8.70;99.90
22430;DHT22;11382;48.086;11.632;2023-03-14T03:21:15;8.70;99.90
22430;DHT22;11382;48.086;11.632;2023-03-14T03:23:44;8.70;99.90
22430;DHT22;11382;48.086;11.632;2023-03-14T03:26:12;8.70;99.90
22430;DHT22;11382;48.086;11.632;2023-03-14T03:28:40;8.70;99.90
22430;DHT22;11382;48.086;11.632;2023-03-14T03:31:09;8.60;99.90
22430;DHT22;11382;48.086;11.632;2023-03-14T03:33:38;8.60;99.90
22430;DHT22;11382;48.086;11.632;2023-03-14T03:36:09;8.60;99.90
22430;DHT22;11382;48.086;11.632;2023-03-14T03:38:38;8.60;99.90
22430;DHT22;11382;48.086;11.632;2023-03-14T03:41:07;8.60;99.90
22430;DHT22;11382;48.086;11.632;2023-03-14T03:43:35;8.50;99.90
22430;DHT22;11382;48.086;11.632;2023-03-14T03:46:06;8.50;99.90
22430;DHT22;11382;48.086;11.632;2023-03-14T03:48:35;8.40;99.90
22430;DHT22;11382;48.086;11.632;2023-03-14T03:51:05;8.40;99.90
22430;DHT22;11382;48.086;11.632;2023-03-14T03:53:37;8.40;99.90
22430;DHT22;11382;48.086;11.632;2023-03-14T03:56:09;8.30;99.90
22430;DHT22;11382;48.086;11.632;2023-03-14T03:58:37;8.30;99.90
22430;DHT22;11382;48.086;11.632;2023-03-14T04:01:06;8.20;99.90
22430;DHT22;11382;48.086;11.632;2023-03-14T04:03:35;8.20;99.90
22430;DHT22;11382;48.086;11.632;2023-03-14T04:06:08;8.20;99.90
22430;DHT22;11382;48.086;11.632;2023-03-14T04:08:39;8.20;99.90
22430;DHT22;11382;48.086;11.632;2023-03-14T04:11:11;8.20;99.90
22430;DHT22;11382;48.086;11.632;2023-03-14T04:13:54;8.20;99.90
22430;DHT22;11382;48.086;11.632;2023-03-14T04:16:23;8.20;99.90
22430;DHT22;11382;48.086;11.632;2023-03-14T04:18:57;8.20;99.90
22430;DHT22;11382;48.086;11.632;2023-03-14T04:21:26;8.20;99.90
22430;DHT22;11382;48.086;11.632;2023-03-14T04:23:58;8.10;99.90
22430;DHT22;11382;48.086;11.632;2023-03-14T04:26:29;8.10;99.90
22430;DHT22;11382;48.086;11.632;2023-03-14T04:28:57;8.10;99.90
22430;DHT22;11382;48.086;11.632;2023-03-14T04:31:26;8.10;99.90
22430;DHT22;11382;48.086;11.632;2023-03-14T04:33:54;8.10;99.90
22430;DHT22;11382;48.086;11.632;2023-03-14T04:36:29;8.00;99.90
22430;DHT22;11382;48.086;11.632;2023-03-14T04:39:03;8.00;99.90
22430;DHT22;11382;48.086;11.632;2023-03-14T04:41:34;8.00;99.90
22430;DHT22;11382;48.086;11.632;2023-03-14T04:44:03;8.00;99.90
22430;DHT22;11382;48.086;11.632;2023-03-14T04:46:31;8.00;99.90
22430;DHT22;11382;48.086;11.632;2023-03-14T04:49:01;8.00;99.90
22430;DHT22;11382;48.086;11.632;2023-03-14T04:51:30;8.00;99.90
22430;DHT22;11382;48.086;11.632;2023-03-14T04:53:58;8.00;99.90
22430;DHT22;11382;48.086;11.632;2023-03-14T04:56:27;8.00;99.90
22430;DHT22;11382;48.086;11.632;2023-03-14T04:58:56;8.00;99.90
22430;DHT22;11382;48.086;11.632;2023-03-14T05:01:24;8.00;99.90
22430;DHT22;11382;48.086;11.632;2023-03-14T05:04:19;8.00;99.90
22430;DHT22;11382;48.086;11.632;2023-03-14T05:07:01;8.00;99.90
22430;DHT22;11382;48.086;11.632;2023-03-14T05:09:51;8.00;99.90
22430;DHT22;11382;48.086;11.632;2023-03-14T05:12:27;8.10;99.90
22430;DHT22;11382;48.086;11.632;2023-03-14T05:15:08;8.00;99.90
22430;DHT22;11382;48.086;11.632;2023-03-14T05:17:55;8.00;99.90
22430;DHT22;11382;48.086;11.632;2023-03-14T05:20:40;8.00;99.90
22430;DHT22;11382;48.086;11.632;2023-03-14T05:23:43;8.00;99.90
22430;DHT22;11382;48.086;11.632;2023-03-14T05:26:29;7.90;99.90
22430;DHT22;11382;48.086;11.632;2023-03-14T05:29:17;8.00;99.90
22430;DHT22;11382;48.086;11.632;2023-03-14T05:31:59;7.90;99.90
22430;DHT22;11382;48.086;11.632;2023-03-14T05:34:51;8.00;99.90
22430;DHT22;11382;48.086;11.632;2023-03-14T05:37:28;8.00;99.90
22430;DHT22;11382;48.086;11.632;2023-03-14T05:40:15;8.00;99.90
22430;DHT22;11382;48.086;11.632;2023-03-14T05:42:56;7.90;99.90
22430;DHT22;11382;48.086;11.632;2023-03-14T05:45:44;8.00;99.90
22430;DHT22;11382;48.086;11.632;2023-03-14T05:48:34;8.00;99.90
22430;DHT22;11382;48.086;11.632;2023-03-14T05:51:25;8.00;99.90
22430;DHT22;11382;48.086;11.632;2023-03-14T05:54:12;7.90;99.90
22430;DHT22;11382;48.086;11.632;2023-03-14T05:57:01;8.00;99.90
22430;DHT22;11382;48.086;11.632;2023-03-14T06:00:06;8.00;99.90
22430;DHT22;11382;48.086;11.632;2023-03-14T06:02:49;8.00;99.90
22430;DHT22;11382;48.086;11.632;2023-03-14T06:05:23;8.20;99.90
22430;DHT22;11382;48.086;11.632;2023-03-14T06:07:56;8.20;99.90
22430;DHT22;11382;48.086;11.632;2023-03-14T06:10:26;8.20;99.90
22430;DHT22;11382;48.086;11.632;2023-03-14T06:12:54;8.20;99.90
22430;DHT22;11382;48.086;11.632;2023-03-14T06:15:22;8.30;99.90
22430;DHT22;11382;48.086;11.632;2023-03-14T06:17:55;8.30;99.90
22430;DHT22;11382;48.086;11.632;2023-03-14T06:20:25;8.30;99.90
22430;DHT22;11382;48.086;11.632;2023-03-14T06:22:53;8.30;99.90
22430;DHT22;11382;48.086;11.632;2023-03-14T06:25:21;8.30;99.90
22430;DHT22;11382;48.086;11.632;2023-03-14T06:27:50;8.20;99.90
22430;DHT22;11382;48.086;11.632;2023-03-14T06:30:18;8.30;99.90
22430;DHT22;11382;48.086;11.632;2023-03-14T06:32:47;8.30;99.90
22430;DHT22;11382;48.086;11.632;2023-03-14T06:35:18;8.40;99.90
22430;DHT22;11382;48.086;11.632;2023-03-14T06:37:46;8.40;99.90
22430;DHT22;11382;48.086;11.632;2023-03-14T06:40:15;8.50;99.90
22430;DHT22;11382;48.086;11.632;2023-03-14T06:42:58;8.50;99.90
22430;DHT22;11382;48.086;11.632;2023-03-14T06:45:28;8.70;99.90
22430;DHT22;11382;48.086;11.632;2023-03-14T06:47:58;8.90;99.90
22430;DHT22;11382;48.086;11.632;2023-03-14T06:50:36;9.00;99.90
22430;DHT22;11382;48.086;11.632;2023-03-14T06:53:04;8.90;99.90
22430;DHT22;11382;48.086;11.632;2023-03-14T06:55:36;9.00;99.90
22430;DHT22;11382;48.086;11.632;2023-03-14T06:58:04;9.10;99.90
22430;DHT22;11382;48.086;11.632;2023-03-14T07:00:39;9.00;99.90
22430;DHT22;11382;48.086;11.632;2023-03-14T07:03:10;9.00;99.90
22430;DHT22;11382;48.086;11.632;2023-03-14T07:05:42;8.90;99.90
22430;DHT22;11382;48.086;11.632;2023-03-14T07:08:10;8.90;99.90
22430;DHT22;11382;48.086;11.632;2023-03-14T07:10:38;8.90;99.90
22430;DHT22;11382;48.086;11.632;2023-03-14T07:13:07;8.80;99.90
22430;DHT22;11382;48.086;11.632;2023-03-14T07:15:45;8.90;99.90
22430;DHT22;11382;48.086;11.632;2023-03-14T07:18:13;8.90;99.90
22430;DHT22;11382;48.086;11.632;2023-03-14T07:20:42;8.90;99.90
22430;DHT22;11382;48.086;11.632;2023-03-14T07:23:14;8.90;99.90
22430;DHT22;11382;48.086;11.632;2023-03-14T07:25:51;9.00;99.90
22430;DHT22;11382;48.086;11.632;2023-03-14T07:28:22;8.90;99.90
22430;DHT22;11382;48.086;11.632;2023-03-14T07:30:57;8.90;99.90
22430;DHT22;11382;48.086;11.632;2023-03-14T07:33:30;8.90;99.90
22430;DHT22;11382;48.086;11.632;2023-03-14T07:36:00;9.00;99.90
22430;DHT22;11382;48.086;11.632;2023-03-14T07:38:28;9.10;99.90
22430;DHT22;11382;48.086;11.632;2023-03-14T07:41:11;9.10;99.90
22430;DHT22;11382;48.086;11.632;2023-03-14T07:43:48;9.20;99.90
22430;DHT22;11382;48.086;11.632;2023-03-14T07:46:16;9.20;99.90
22430;DHT22;11382;48.086;11.632;2023-03-14T07:48:44;9.30;99.90
22430;DHT22;11382;48.086;11.632;2023-03-14T07:51:13;9.30;99.90
22430;DHT22;11382;48.086;11.632;2023-03-14T07:53:41;9.50;99.90
22430;DHT22;11382;48.086;11.632;2023-03-14T07:56:10;9.80;99.90
22430;DHT22;11382;48.086;11.632;2023-03-14T07:58:38;9.90;99.90
22430;DHT22;11382;48.086;11.632;2023-03-14T08:01:06;10.00;99.90
22430;DHT22;11382;48.086;11.632;2023-03-14T08:03:34;10.40;99.90
22430;DHT22;11382;48.086;11.632;2023-03-14T08:06:02;10.50;99.90
22430;DHT22;11382;48.086;11.632;2023-03-14T08:08:32;10.70;99.90
22430;DHT22;11382;48.086;11.632;2023-03-14T08:11:03;10.70;99.90
22430;DHT22;11382;48.086;11.632;2023-03-14T08:13:31;10.50;99.90
22430;DHT22;11382;48.086;11.632;2023-03-14T08:15:59;10.40;99.90
22430;DHT22;11382;48.086;11.632;2023-03-14T08:18:27;10.50;99.90
22430;DHT22;11382;48.086;11.632;2023-03-14T08:20:55;10.60;99.90
22430;DHT22;11382;48.086;11.632;2023-03-14T08:23:23;10.60;99.90
22430;DHT22;11382;48.086;11.632;2023-03-14T08:25:52;10.70;99.90
22430;DHT22;11382;48.086;11.632;2023-03-14T08:28:20;10.80;99.90
22430;DHT22;11382;48.086;11.632;2023-03-14T08:30:48;10.80;99.90
22430;DHT22;11382;48.086;11.632;2023-03-14T08:33:16;10.80;99.90
22430;DHT22;11382;48.086;11.632;2023-03-14T08:35:44;10.90;99.90
22430;DHT22;11382;48.086;11.632;2023-03-14T08:38:12;10.80;99.90
22430;DHT22;11382;48.086;11.632;2023-03-14T08:40:40;10.80;99.90
22430;DHT22;11382;48.086;11.632;2023-03-14T08:43:09;10.80;99.90
22430;DHT22;11382;48.086;11.632;2023-03-14T08:45:37;10.90;99.90
22430;DHT22;11382;48.086;11.632;2023-03-14T08:48:05;11.10;99.90
22430;DHT22;11382;48.086;11.632;2023-03-14T08:50:33;11.10;99.90
22430;DHT22;11382;48.086;11.632;2023-03-14T08:53:01;11.20;99.90
22430;DHT22;11382;48.086;11.632;2023-03-14T08:55:29;11.00;99.90
22430;DHT22;11382;48.086;11.632;2023-03-14T08:57:57;11.10;99.90
22430;DHT22;11382;48.086;11.632;2023-03-14T09:00:26;11.10;99.90
22430;DHT22;11382;48.086;11.632;2023-03-14T09:02:54;10.80;99.90
22430;DHT22;11382;48.086;11.632;2023-03-14T09:05:22;10.80;99.90
22430;DHT22;11382;48.086;11.632;2023-03-14T09:07:50;10.80;99.90
22430;DHT22;11382;48.086;11.632;2023-03-14T09:10:18;10.70;99.90
22430;DHT22;11382;48.086;11.632;2023-03-14T09:12:46;10.80;99.90
22430;DHT22;11382;48.086;11.632;2023-03-14T09:15:14;10.90;99.90
22430;DHT22;11382;48.086;11.632;2023-03-14T09:17:44;11.00;99.90
22430;DHT22;11382;48.086;11.632;2023-03-14T09:20:12;11.00;99.90
22430;DHT22;11382;48.086;11.632;2023-03-14T09:22:41;11.00;99.90
22430;DHT22;11382;48.086;11.632;2023-03-14T09:25:09;11.00;99.90
22430;DHT22;11382;48.086;11.632;2023-03-14T09:27:38;11.00;99.90
22430;DHT22;11382;48.086;11.632;2023-03-14T09:30:07;11.20;99.90
22430;DHT22;11382;48.086;11.632;2023-03-14T09:32:35;10.90;99.90
22430;DHT22;11382;48.086;11.632;2023-03-14T09:35:05;10.60;99.90
22430;DHT22;11382;48.086;11.632;2023-03-14T09:37:33;10.70;99.90
22430;DHT22;11382;48.086;11.632;2023-03-14T09:40:01;10.80;99.90
22430;DHT22;11382;48.086;11.632;2023-03-14T09:42:37;10.90;99.90
22430;DHT22;11382;48.086;11.632;2023-03-14T09:45:10;10.90;99.90
22430;DHT22;11382;48.086;11.632;2023-03-14T09:47:40;10.90;99.90
22430;DHT22;11382;48.086;11.632;2023-03-14T09:50:30;10.90;99.90
22430;DHT22;11382;48.086;11.632;2023-03-14T09:53:03;10.80;99.90
22430;DHT22;11382;48.086;11.632;2023-03-14T09:55:32;10.90;99.90
22430;DHT22;11382;48.086;11.632;2023-03-14T09:58:08;11.00;99.90
22430;DHT22;11382;48.086;11.632;2023-03-14T10:00:37;11.10;99.90
22430;DHT22;11382;48.086;11.632;2023-03-14T10:03:31;11.10;99.90
22430;DHT22;11382;48.086;11.632;2023-03-14T10:06:01;11.10;99.90
22430;DHT22;11382;48.086;11.632;2023-03-14T10:08:30;11.20;99.90
22430;DHT22;11382;48.086;11.632;2023-03-14T10:10:58;11.10;99.90
22430;DHT22;11382;48.086;11.632;2023-03-14T10:13:27;11.50;99.90
22430;DHT22;11382;48.086;11.632;2023-03-14T10:15:59;11.70;99.90
22430;DHT22;11382;48.086;11.632;2023-03-14T10:18:29;11.80;99.90
22430;DHT22;11382;48.086;11.632;2023-03-14T10:21:17;12.10;99.90
22430;DHT22;11382;48.086;11.632;2023-03-14T10:23:46;12.20;99.90
22430;DHT22;11382;48.086;11.632;2023-03-14T10:26:17;12.10;99.90
22430;DHT22;11382;48.086;11.632;2023-03-14T10:28:47;12.40;99.90
22430;DHT22;11382;48.086;11.632;2023-03-14T10:31:15;12.90;99.90
22430;DHT22;11382;48.086;11.632;2023-03-14T10:33:58;13.60;99.90
22430;DHT22;11382;48.086;11.632;2023-03-14T10:36:28;14.60;99.90
22430;DHT22;11382;48.086;11.632;2023-03-14T10:38:58;15.30;99.90
22430;DHT22;11382;48.086;11.632;2023-03-14T10:41:32;15.10;99.90
22430;DHT22;11382;48.086;11.632;2023-03-14T10:44:02;15.20;99.90
22430;DHT22;11382;48.086;11.632;2023-03-14T10:46:32;15.20;99.90
22430;DHT22;11382;48.086;11.632;2023-03-14T10:49:26;15.90;99.90
22430;DHT22;11382;48.086;11.632;2023-03-14T10:52:01;16.30;99.90
22430;DHT22;11382;48.086;11.632;2023-03-14T10:54:30;16.50;99.90
22430;DHT22;11382;48.086;11.632;2023-03-14T10:56:59;16.40;99.90
22430;DHT22;11382;48.086;11.632;2023-03-14T10:59:32;16.20;99.90
22430;DHT22;11382;48.086;11.632;2023-03-14T11:02:10;15.20;99.90
22430;DHT22;11382;48.086;11.632;2023-03-14T11:04:55;14.30;99.90
22430;DHT22;11382;48.086;11.632;2023-03-14T11:07:32;14.20;99.90
22430;DHT22;11382;48.086;11.632;2023-03-14T11:10:08;14.20;99.90
22430;DHT22;11382;48.086;11.632;2023-03-14T11:12:45;14.30;99.90
22430;DHT22;11382;48.086;11.632;2023-03-14T11:15:21;14.00;99.90
22430;DHT22;11382;48.086;11.632;2023-03-14T11:17:59;14.30;99.90
22430;DHT22;11382;48.086;11.632;2023-03-14T11:20:38;14.30;99.90
22430;DHT22;11382;48.086;11.632;2023-03-14T11:23:14;13.80;99.90
22430;DHT22;11382;48.086;11.632;2023-03-14T11:25:49;13.70;99.90
22430;DHT22;11382;48.086;11.632;2023-03-14T11:28:24;13.80;99.90
22430;DHT22;11382;48.086;11.632;2023-03-14T11:30:57;14.40;99.90
22430;DHT22;11382;48.086;11.632;2023-03-14T11:33:29;14.90;99.90
22430;DHT22;11382;48.086;11.632;2023-03-14T11:36:03;15.00;99.90
22430;DHT22;11382;48.086;11.632;2023-03-14T11:38:34;15.40;99.90
22430;DHT22;11382;48.086;11.632;2023-03-14T11:41:10;15.80;99.90
22430;DHT22;11382;48.086;11.632;2023-03-14T11:43:40;14.80;99.90
22430;DHT22;11382;48.086;11.632;2023-03-14T11:46:14;14.90;99.90
22430;DHT22;11382;48.086;11.632;2023-03-14T11:48:48;15.50;99.90
22430;DHT22;11382;48.086;11.632;2023-03-14T11:51:23;15.40;99.90
22430;DHT22;11382;48.086;11.632;2023-03-14T11:53:59;15.20;99.90
22430;DHT22;11382;48.086;11.632;2023-03-14T11:56:33;15.20;99.90
22430;DHT22;11382;48.086;11.632;2023-03-14T11:59:05;14.70;99.90
22430;DHT22;11382;48.086;11.632;2023-03-14T12:01:49;14.30;99.90
22430;DHT22;11382;48.086;11.632;2023-03-14T12:04:36;14.00;99.90
22430;DHT22;11382;48.086;11.632;2023-03-14T12:07:17;14.10;99.90
22430;DHT22;11382;48.086;11.632;2023-03-14T12:09:48;14.30;99.90
22430;DHT22;11382;48.086;11.632;2023-03-14T12:12:19;14.30;99.90
22430;DHT22;11382;48.086;11.632;2023-03-14T12:14:54;14.60;99.90
22430;DHT22;11382;48.086;11.632;2023-03-14T12:17:25;14.70;99.90
22430;DHT22;11382;48.086;11.632;2023-03-14T12:20:03;14.90;99.90
22430;DHT22;11382;48.086;11.632;2023-03-14T12:22:35;14.80;99.90
22430;DHT22;11382;48.086;11.632;2023-03-14T12:25:13;15.00;99.90
22430;DHT22;11382;48.086;11.632;2023-03-14T12:28:03;15.30;99.90
22430;DHT22;11382;48.086;11.632;2023-03-14T12:30:33;15.40;99.90
22430;DHT22;11382;48.086;11.632;2023-03-14T12:33:26;14.70;99.90
22430;DHT22;11382;48.086;11.632;2023-03-14T12:39:03;14.20;99.90
22430;DHT22;11382;48.086;11.632;2023-03-14T12:41:40;14.10;99.90
22430;DHT22;11382;48.086;11.632;2023-03-14T12:44:42;13.80;99.90
22430;DHT22;11382;48.086;11.632;2023-03-14T12:50:20;14.10;99.90
22430;DHT22;11382;48.086;11.632;2023-03-14T12:55:44;14.40;99.90
22430;DHT22;11382;48.086;11.632;2023-03-14T12:58:18;14.10;99.90
22430;DHT22;11382;48.086;11.632;2023-03-14T13:00:55;14.30;99.90
22430;DHT22;11382;48.086;11.632;2023-03-14T13:03:26;14.60;99.90
22430;DHT22;11382;48.086;11.632;2023-03-14T13:06:04;14.70;99.90
22430;DHT22;11382;48.086;11.632;2023-03-14T13:08:35;14.50;99.90
22430;DHT22;11382;48.086;11.632;2023-03-14T13:11:09;14.20;99.90
22430;DHT22;11382;48.086;11.632;2023-03-14T13:13:45;14.10;99.90
22430;DHT22;11382;48.086;11.632;2023-03-14T13:16:17;13.60;99.90
22430;DHT22;11382;48.086;11.632;2023-03-14T13:18:47;13.20;99.90
22430;DHT22;11382;48.086;11.632;2023-03-14T13:21:17;13.50;99.90
22430;DHT22;11382;48.086;11.632;2023-03-14T13:23:58;13.60;99.90
22430;DHT22;11382;48.086;11.632;2023-03-14T13:26:34;13.50;99.90
22430;DHT22;11382;48.086;11.632;2023-03-14T13:29:15;13.40;99.90
22430;DHT22;11382;48.086;11.632;2023-03-14T13:31:45;13.10;99.90
22430;DHT22;11382;48.086;11.632;2023-03-14T13:34:13;13.20;99.90
22430;DHT22;11382;48.086;11.632;2023-03-14T13:36:42;13.10;99.90
22430;DHT22;11382;48.086;11.632;2023-03-14T13:39:13;13.10;99.90
22430;DHT22;11382;48.086;11.632;2023-03-14T13:41:44;12.80;99.90
22430;DHT22;11382;48.086;11.632;2023-03-14T13:44:17;12.90;99.90
22430;DHT22;11382;48.086;11.632;2023-03-14T13:46:46;12.40;99.90
22430;DHT22;11382;48.086;11.632;2023-03-14T13:49:19;11.90;99.90
22430;DHT22;11382;48.086;11.632;2023-03-14T13:51:49;12.00;99.90
22430;DHT22;11382;48.086;11.632;2023-03-14T13:54:18;11.80;99.90
22430;DHT22;11382;48.086;11.632;2023-03-14T13:56:47;11.70;99.90
22430;DHT22;11382;48.086;11.632;2023-03-14T13:59:24;11.50;99.90
22430;DHT22;11382;48.086;11.632;2023-03-14T14:01:52;11.40;99.90
22430;DHT22;11382;48.086;11.632;2023-03-14T14:04:22;11.30;99.90
22430;DHT22;11382;48.086;11.632;2023-03-14T14:06:53;11.30;99.90
22430;DHT22;11382;48.086;11.632;2023-03-14T14:09:25;11.30;99.90
22430;DHT22;11382;48.086;11.632;2023-03-14T14:11:56;11.10;99.90
22430;DHT22;11382;48.086;11.632;2023-03-14T14:14:45;10.80;99.90
22430;DHT22;11382;48.086;11.632;2023-03-14T14:17:17;10.20;99.90
22430;DHT22;11382;48.086;11.632;2023-03-14T14:19:47;10.00;99.90
22430;DHT22;11382;48.086;11.632;2023-03-14T14:22:16;9.90;99.90
22430;DHT22;11382;48.086;11.632;2023-03-14T14:24:45;9.60;99.90
22430;DHT22;11382;48.086;11.632;2023-03-14T14:27:16;9.30;99.90
22430;DHT22;11382;48.086;11.632;2023-03-14T14:29:57;9.10;99.90
22430;DHT22;11382;48.086;11.632;2023-03-14T14:32:25;8.90;99.90
22430;DHT22;11382;48.086;11.632;2023-03-14T14:34:58;8.70;99.90
22430;DHT22;11382;48.086;11.632;2023-03-14T14:37:27;8.50;99.90
22430;DHT22;11382;48.086;11.632;2023-03-14T14:39:58;8.30;99.90
22430;DHT22;11382;48.086;11.632;2023-03-14T14:42:28;8.10;99.90
22430;DHT22;11382;48.086;11.632;2023-03-14T14:44:59;7.90;99.90
22430;DHT22;11382;48.086;11.632;2023-03-14T14:47:28;7.90;99.90
22430;DHT22;11382;48.086;11.632;2023-03-14T14:50:00;7.90;99.90
22430;DHT22;11382;48.086;11.632;2023-03-14T14:52:36;7.80;99.90
22430;DHT22;11382;48.086;11.632;2023-03-14T14:55:12;7.80;99.90
22430;DHT22;11382;48.086;11.632;2023-03-14T14:57:40;7.80;99.90
22430;DHT22;11382;48.086;11.632;2023-03-14T15:00:20;7.90;99.90
22430;DHT22;11382;48.086;11.632;2023-03-14T15:02:50;7.90;99.90
22430;DHT22;11382;48.086;11.632;2023-03-14T15:05:23;7.90;99.90
22430;DHT22;11382;48.086;11.632;2023-03-14T15:07:52;7.80;99.90
22430;DHT22;11382;48.086;11.632;2023-03-14T15:10:21;7.70;99.90
22430;DHT22;11382;48.086;11.632;2023-03-14T15:12:50;7.70;99.90
22430;DHT22;11382;48.086;11.632;2023-03-14T15:15:19;7.80;99.90
22430;DHT22;11382;48.086;11.632;2023-03-14T15:17:47;8.00;99.90
22430;DHT22;11382;48.086;11.632;2023-03-14T15:20:17;8.10;99.90
22430;DHT22;11382;48.086;11.632;2023-03-14T15:22:46;8.10;99.90
22430;DHT22;11382;48.086;11.632;2023-03-14T15:25:14;8.00;99.90
22430;DHT22;11382;48.086;11.632;2023-03-14T15:28:02;7.90;99.90
22430;DHT22;11382;48.086;11.632;2023-03-14T15:30:32;7.90;99.90
22430;DHT22;11382;48.086;11.632;2023-03-14T15:33:00;7.90;99.90
22430;DHT22;11382;48.086;11.632;2023-03-14T15:35:28;8.00;99.90
22430;DHT22;11382;48.086;11.632;2023-03-14T15:37:56;7.90;99.90
22430;DHT22;11382;48.086;11.632;2023-03-14T15:40:24;7.90;99.90
22430;DHT22;11382;48.086;11.632;2023-03-14T15:42:55;7.90;99.90
22430;DHT22;11382;48.086;11.632;2023-03-14T15:45:23;7.80;99.90
22430;DHT22;11382;48.086;11.632;2023-03-14T15:47:53;7.90;99.90
22430;DHT22;11382;48.086;11.632;2023-03-14T15:50:21;7.80;99.90
22430;DHT22;11382;48.086;11.632;2023-03-14T15:52:50;8.00;99.90
22430;DHT22;11382;48.086;11.632;2023-03-14T15:55:18;7.80;99.90
22430;DHT22;11382;48.086;11.632;2023-03-14T15:57:46;7.70;99.90
22430;DHT22;11382;48.086;11.632;2023-03-14T16:00:16;7.60;99.90
22430;DHT22;11382;48.086;11.632;2023-03-14T16:02:45;7.50;99.90